sensor_id;sensor_type;location;lat;lon;timestamp;P1;durP1;ratioP1;P2;durP2;ratioP2
54143;SDS011;40050;47.324;18.792;2023-03-24T00:00:30;25.07;;;13.05;;
54143;SDS011;40050;47.324;18.792;2023-03-24T00:02:27;22.04;;;12.25;;
54143;SDS011;40050;47.324;18.792;2023-03-24T00:04:28;22.43;;;12.35;;
54143;SDS011;40050;47.324;18.792;2023-03-24T00:06:30;17.20;;;11.06;;
54143;SDS011;40050;47.324;18.792;2023-03-24T00:08:32;20.50;;;10.86;;
54143;SDS011;40050;47.324;18.792;2023-03-24T00:10:32;15.94;;;10.56;;
54143;SDS011;40050;47.324;18.792;2023-03-24T00:12:33;19.25;;;10.86;;
54143;SDS011;40050;47.324;18.792;2023-03-24T00:14:35;18.87;;;10.66;;
54143;SDS011;40050;47.324;18.792;2023-03-24T00:16:37;19.93;;;10.96;;
54143;SDS011;40050;47.324;18.792;2023-03-24T00:18:38;19.83;;;11.76;;
54143;SDS011;40050;47.324;18.792;2023-03-24T00:20:40;19.73;;;11.96;;
54143;SDS011;40050;47.324;18.792;2023-03-24T00:22:42;20.80;;;11.96;;
54143;SDS011;40050;47.324;18.792;2023-03-24T00:24:42;20.22;;;11.86;;
54143;SDS011;40050;47.324;18.792;2023-03-24T00:26:44;23.40;;;12.25;;
54143;SDS011;40050;47.324;18.792;2023-03-24T00:28:45;21.75;;;12.25;;
54143;SDS011;40050;47.324;18.792;2023-03-24T00:30:46;22.82;;;12.35;;
54143;SDS011;40050;47.324;18.792;2023-03-24T00:32:47;21.65;;;13.15;;
54143;SDS011;40050;47.324;18.792;2023-03-24T00:34:49;24.46;;;12.95;;
54143;SDS011;40050;47.324;18.792;2023-03-24T00:36:51;23.56;;;13.35;;
54143;SDS011;40050;47.324;18.792;2023-03-24T00:38:52;24.80;;;13.15;;
54143;SDS011;40050;47.324;18.792;2023-03-24T00:40:53;22.96;;;13.34;;
54143;SDS011;40050;47.324;18.792;2023-03-24T00:42:54;23.05;;;13.04;;
54143;SDS011;40050;47.324;18.792;2023-03-24T00:44:55;22.66;;;13.24;;
54143;SDS011;40050;47.324;18.792;2023-03-24T00:46:56;26.50;;;12.84;;
54143;SDS011;40050;47.324;18.792;2023-03-24T00:49:02;24.65;;;13.14;;
54143;SDS011;40050;47.324;18.792;2023-03-24T00:51:00;26.19;;;14.13;;
54143;SDS011;40050;47.324;18.792;2023-03-24T00:52:59;24.95;;;13.54;;
54143;SDS011;40050;47.324;18.792;2023-03-24T00:55:01;22.74;;;13.24;;
54143;SDS011;40050;47.324;18.792;2023-03-24T00:57:02;23.80;;;13.04;;
54143;SDS011;40050;47.324;18.792;2023-03-24T00:59:03;26.01;;;14.43;;
54143;SDS011;40050;47.324;18.792;2023-03-24T01:01:04;25.61;;;14.03;;
54143;SDS011;40050;47.324;18.792;2023-03-24T01:03:05;23.94;;;13.73;;
54143;SDS011;40050;47.324;18.792;2023-03-24T01:05:06;24.80;;;13.53;;
54143;SDS011;40050;47.324;18.792;2023-03-24T01:07:07;21.34;;;12.04;;
54143;SDS011;40050;47.324;18.792;2023-03-24T01:09:08;24.16;;;12.94;;
54143;SDS011;40050;47.324;18.792;2023-03-24T01:11:09;21.37;;;11.55;;
54143;SDS011;40050;47.324;18.792;2023-03-24T01:13:10;21.00;;;11.35;;
54143;SDS011;40050;47.324;18.792;2023-03-24T01:15:12;21.38;;;11.45;;
54143;SDS011;40050;47.324;18.792;2023-03-24T01:17:12;18.79;;;11.45;;
54143;SDS011;40050;47.324;18.792;2023-03-24T01:19:13;20.94;;;11.65;;
54143;SDS011;40050;47.324;18.792;2023-03-24T01:21:15;19.77;;;11.25;;
54143;SDS011;40050;47.324;18.792;2023-03-24T01:23:18;20.72;;;11.95;;
54143;SDS011;40050;47.324;18.792;2023-03-24T01:25:19;23.32;;;12.45;;
54143;SDS011;40050;47.324;18.792;2023-03-24T01:27:19;22.25;;;12.64;;
54143;SDS011;40050;47.324;18.792;2023-03-24T01:29:20;21.26;;;12.54;;
54143;SDS011;40050;47.324;18.792;2023-03-24T01:31:24;23.16;;;12.74;;
54143;SDS011;40050;47.324;18.792;2023-03-24T01:33:25;24.04;;;14.23;;
54143;SDS011;40050;47.324;18.792;2023-03-24T01:35:26;21.61;;;13.13;;
54143;SDS011;40050;47.324;18.792;2023-03-24T01:37:27;21.42;;;12.34;;
54143;SDS011;40050;47.324;18.792;2023-03-24T01:39:28;16.71;;;10.85;;
54143;SDS011;40050;47.324;18.792;2023-03-24T01:41:32;18.07;;;11.55;;
54143;SDS011;40050;47.324;18.792;2023-03-24T01:43:31;18.75;;;10.95;;
54143;SDS011;40050;47.324;18.792;2023-03-24T01:45:48;23.84;;;12.04;;
54143;SDS011;40050;47.324;18.792;2023-03-24T01:47:44;23.53;;;12.24;;
54143;SDS011;40050;47.324;18.792;2023-03-24T01:49:50;20.17;;;11.84;;
54143;SDS011;40050;47.324;18.792;2023-03-24T01:52:02;20.64;;;11.94;;
54143;SDS011;40050;47.324;18.792;2023-03-24T01:54:07;19.30;;;11.84;;
54143;SDS011;40050;47.324;18.792;2023-03-24T01:56:05;21.36;;;12.04;;
54143;SDS011;40050;47.324;18.792;2023-03-24T01:58:07;21.94;;;12.74;;
54143;SDS011;40050;47.324;18.792;2023-03-24T02:00:12;23.09;;;12.94;;
54143;SDS011;40050;47.324;18.792;2023-03-24T02:02:12;21.74;;;13.34;;
54143;SDS011;40050;47.324;18.792;2023-03-24T02:04:13;22.70;;;13.34;;
54143;SDS011;40050;47.324;18.792;2023-03-24T02:06:15;22.98;;;12.94;;
54143;SDS011;40050;47.324;18.792;2023-03-24T02:09:02;23.94;;;13.33;;
54143;SDS011;40050;47.324;18.792;2023-03-24T02:10:46;22.36;;;13.23;;
54143;SDS011;40050;47.324;18.792;2023-03-24T02:12:47;22.34;;;13.03;;
54143;SDS011;40050;47.324;18.792;2023-03-24T02:14:48;21.72;;;12.53;;
54143;SDS011;40050;47.324;18.792;2023-03-24T02:19:36;21.81;;;13.42;;
54143;SDS011;40050;47.324;18.792;2023-03-24T02:23:55;20.94;;;13.02;;
54143;SDS011;40050;47.324;18.792;2023-03-24T02:26:19;22.01;;;13.22;;
54143;SDS011;40050;47.324;18.792;2023-03-24T02:30:57;23.97;;;13.61;;
54143;SDS011;40050;47.324;18.792;2023-03-24T02:35:37;26.49;;;14.40;;
54143;SDS011;40050;47.324;18.792;2023-03-24T02:37:45;27.56;;;14.10;;
54143;SDS011;40050;47.324;18.792;2023-03-24T02:39:57;27.69;;;14.59;;
54143;SDS011;40050;47.324;18.792;2023-03-24T02:42:12;26.43;;;14.00;;
54143;SDS011;40050;47.324;18.792;2023-03-24T02:44:34;24.99;;;14.49;;
54143;SDS011;40050;47.324;18.792;2023-03-24T02:46:43;28.32;;;14.49;;
54143;SDS011;40050;47.324;18.792;2023-03-24T02:51:08;26.38;;;14.19;;
54143;SDS011;40050;47.324;18.792;2023-03-24T02:53:21;24.20;;;13.99;;
54143;SDS011;40050;47.324;18.792;2023-03-24T02:55:21;25.43;;;14.39;;
54143;SDS011;40050;47.324;18.792;2023-03-24T02:57:35;23.50;;;13.89;;
54143;SDS011;40050;47.324;18.792;2023-03-24T03:01:42;24.25;;;14.38;;
54143;SDS011;40050;47.324;18.792;2023-03-24T03:03:51;21.97;;;13.98;;
54143;SDS011;40050;47.324;18.792;2023-03-24T03:05:55;24.61;;;14.28;;
54143;SDS011;40050;47.324;18.792;2023-03-24T03:07:56;22.70;;;14.38;;
54143;SDS011;40050;47.324;18.792;2023-03-24T03:10:00;24.51;;;13.78;;
54143;SDS011;40050;47.324;18.792;2023-03-24T03:11:59;24.03;;;14.77;;
54143;SDS011;40050;47.324;18.792;2023-03-24T03:14:40;26.38;;;14.87;;
54143;SDS011;40050;47.324;18.792;2023-03-24T03:16:20;24.48;;;14.87;;
54143;SDS011;40050;47.324;18.792;2023-03-24T03:18:27;24.22;;;14.18;;
54143;SDS011;40050;47.324;18.792;2023-03-24T03:20:25;23.51;;;14.58;;
54143;SDS011;40050;47.324;18.792;2023-03-24T03:22:28;24.30;;;14.69;;
54143;SDS011;40050;47.324;18.792;2023-03-24T03:24:37;23.34;;;14.19;;
54143;SDS011;40050;47.324;18.792;2023-03-24T03:26:40;21.71;;;13.59;;
54143;SDS011;40050;47.324;18.792;2023-03-24T03:28:42;23.22;;;14.78;;
54143;SDS011;40050;47.324;18.792;2023-03-24T03:30:50;23.13;;;14.28;;
54143;SDS011;40050;47.324;18.792;2023-03-24T03:32:59;25.48;;;14.68;;
54143;SDS011;40050;47.324;18.792;2023-03-24T03:35:18;23.59;;;15.27;;
54143;SDS011;40050;47.324;18.792;2023-03-24T03:37:44;23.47;;;14.97;;
54143;SDS011;40050;47.324;18.792;2023-03-24T03:39:58;25.55;;;15.17;;
54143;SDS011;40050;47.324;18.792;2023-03-24T03:41:56;21.94;;;14.57;;
54143;SDS011;40050;47.324;18.792;2023-03-24T03:43:57;24.31;;;14.97;;
54143;SDS011;40050;47.324;18.792;2023-03-24T03:45:59;26.10;;;15.66;;
54143;SDS011;40050;47.324;18.792;2023-03-24T03:48:00;22.42;;;14.08;;
54143;SDS011;40050;47.324;18.792;2023-03-24T03:50:02;25.96;;;15.97;;
54143;SDS011;40050;47.324;18.792;2023-03-24T03:52:03;26.07;;;15.08;;
54143;SDS011;40050;47.324;18.792;2023-03-24T03:54:11;26.35;;;16.07;;
54143;SDS011;40050;47.324;18.792;2023-03-24T03:56:13;24.25;;;16.17;;
54143;SDS011;40050;47.324;18.792;2023-03-24T03:58:14;28.14;;;16.36;;
54143;SDS011;40050;47.324;18.792;2023-03-24T04:00:16;22.88;;;15.07;;
54143;SDS011;40050;47.324;18.792;2023-03-24T04:06:43;24.99;;;15.57;;
54143;SDS011;40050;47.324;18.792;2023-03-24T04:08:49;23.84;;;15.67;;
54143;SDS011;40050;47.324;18.792;2023-03-24T04:11:17;23.75;;;14.97;;
54143;SDS011;40050;47.324;18.792;2023-03-24T04:15:35;27.34;;;16.06;;
54143;SDS011;40050;47.324;18.792;2023-03-24T04:27:06;28.97;;;17.44;;
54143;SDS011;40050;47.324;18.792;2023-03-24T04:29:07;26.53;;;17.24;;
54143;SDS011;40050;47.324;18.792;2023-03-24T04:35:44;26.16;;;16.05;;
54143;SDS011;40050;47.324;18.792;2023-03-24T04:37:45;24.57;;;15.26;;
54143;SDS011;40050;47.324;18.792;2023-03-24T04:39:52;24.01;;;15.76;;
54143;SDS011;40050;47.324;18.792;2023-03-24T04:41:54;25.71;;;16.55;;
54143;SDS011;40050;47.324;18.792;2023-03-24T04:43:58;26.77;;;16.75;;
54143;SDS011;40050;47.324;18.792;2023-03-24T04:45:59;26.65;;;16.95;;
54143;SDS011;40050;47.324;18.792;2023-03-24T04:48:04;27.12;;;17.64;;
54143;SDS011;40050;47.324;18.792;2023-03-24T04:50:07;26.37;;;16.85;;
54143;SDS011;40050;47.324;18.792;2023-03-24T04:52:08;26.94;;;17.25;;
54143;SDS011;40050;47.324;18.792;2023-03-24T04:54:09;26.82;;;17.54;;
54143;SDS011;40050;47.324;18.792;2023-03-24T04:58:28;26.92;;;17.34;;
54143;SDS011;40050;47.324;18.792;2023-03-24T05:00:29;26.82;;;17.34;;
54143;SDS011;40050;47.324;18.792;2023-03-24T05:02:30;29.73;;;18.33;;
54143;SDS011;40050;47.324;18.792;2023-03-24T05:04:31;28.08;;;18.12;;
54143;SDS011;40050;47.324;18.792;2023-03-24T05:06:32;32.80;;;19.90;;
54143;SDS011;40050;47.324;18.792;2023-03-24T05:08:33;29.82;;;18.41;;
54143;SDS011;40050;47.324;18.792;2023-03-24T05:10:36;29.84;;;18.81;;
54143;SDS011;40050;47.324;18.792;2023-03-24T05:12:35;27.32;;;17.72;;
54143;SDS011;40050;47.324;18.792;2023-03-24T05:14:36;26.12;;;16.94;;
54143;SDS011;40050;47.324;18.792;2023-03-24T05:16:37;26.45;;;17.04;;
54143;SDS011;40050;47.324;18.792;2023-03-24T05:18:39;27.70;;;17.74;;
54143;SDS011;40050;47.324;18.792;2023-03-24T05:20:40;28.44;;;18.83;;
54143;SDS011;40050;47.324;18.792;2023-03-24T05:22:41;31.40;;;19.41;;
54143;SDS011;40050;47.324;18.792;2023-03-24T05:24:42;31.28;;;18.91;;
54143;SDS011;40050;47.324;18.792;2023-03-24T05:26:43;29.50;;;19.31;;
54143;SDS011;40050;47.324;18.792;2023-03-24T05:28:44;30.77;;;19.80;;
54143;SDS011;40050;47.324;18.792;2023-03-24T05:30:45;25.70;;;17.33;;
54143;SDS011;40050;47.324;18.792;2023-03-24T05:32:46;29.85;;;18.12;;
54143;SDS011;40050;47.324;18.792;2023-03-24T05:34:47;30.23;;;18.61;;
54143;SDS011;40050;47.324;18.792;2023-03-24T05:36:48;29.70;;;18.31;;
54143;SDS011;40050;47.324;18.792;2023-03-24T05:38:49;28.45;;;18.70;;
54143;SDS011;40050;47.324;18.792;2023-03-24T05:40:50;30.03;;;19.39;;
54143;SDS011;40050;47.324;18.792;2023-03-24T05:42:51;28.14;;;18.69;;
54143;SDS011;40050;47.324;18.792;2023-03-24T05:44:52;29.62;;;19.68;;
54143;SDS011;40050;47.324;18.792;2023-03-24T05:46:53;31.86;;;19.48;;
54143;SDS011;40050;47.324;18.792;2023-03-24T05:48:54;28.91;;;18.79;;
54143;SDS011;40050;47.324;18.792;2023-03-24T05:50:55;28.82;;;18.30;;
54143;SDS011;40050;47.324;18.792;2023-03-24T05:52:56;28.35;;;18.90;;
54143;SDS011;40050;47.324;18.792;2023-03-24T05:54:57;30.53;;;19.99;;
54143;SDS011;40050;47.324;18.792;2023-03-24T05:56:57;30.87;;;20.77;;
54143;SDS011;40050;47.324;18.792;2023-03-24T05:58:58;29.88;;;19.67;;
54143;SDS011;40050;47.324;18.792;2023-03-24T06:01:04;29.40;;;19.38;;
54143;SDS011;40050;47.324;18.792;2023-03-24T06:03:01;29.07;;;18.97;;
54143;SDS011;40050;47.324;18.792;2023-03-24T06:05:02;28.79;;;18.67;;
54143;SDS011;40050;47.324;18.792;2023-03-24T06:07:03;29.40;;;19.08;;
54143;SDS011;40050;47.324;18.792;2023-03-24T06:09:04;29.79;;;19.57;;
54143;SDS011;40050;47.324;18.792;2023-03-24T06:11:05;31.12;;;20.17;;
54143;SDS011;40050;47.324;18.792;2023-03-24T06:13:06;27.86;;;19.78;;
54143;SDS011;40050;47.324;18.792;2023-03-24T06:15:07;30.32;;;19.59;;
54143;SDS011;40050;47.324;18.792;2023-03-24T06:17:08;29.95;;;19.69;;
54143;SDS011;40050;47.324;18.792;2023-03-24T06:19:08;30.42;;;19.31;;
54143;SDS011;40050;47.324;18.792;2023-03-24T06:21:09;29.17;;;18.71;;
54143;SDS011;40050;47.324;18.792;2023-03-24T06:23:10;28.32;;;19.22;;
54143;SDS011;40050;47.324;18.792;2023-03-24T06:25:12;26.08;;;18.24;;
54143;SDS011;40050;47.324;18.792;2023-03-24T06:27:13;27.58;;;18.45;;
54143;SDS011;40050;47.324;18.792;2023-03-24T06:29:14;26.00;;;17.96;;
54143;SDS011;40050;47.324;18.792;2023-03-24T06:31:15;25.25;;;17.56;;
54143;SDS011;40050;47.324;18.792;2023-03-24T06:33:16;25.72;;;17.66;;
54143;SDS011;40050;47.324;18.792;2023-03-24T06:35:17;27.36;;;18.17;;
54143;SDS011;40050;47.324;18.792;2023-03-24T06:37:18;25.47;;;16.79;;
54143;SDS011;40050;47.324;18.792;2023-03-24T06:39:19;24.98;;;17.28;;
54143;SDS011;40050;47.324;18.792;2023-03-24T06:41:20;24.35;;;17.09;;
54143;SDS011;40050;47.324;18.792;2023-03-24T06:43:21;27.36;;;17.69;;
54143;SDS011;40050;47.324;18.792;2023-03-24T06:45:21;23.87;;;17.09;;
54143;SDS011;40050;47.324;18.792;2023-03-24T06:47:22;25.95;;;17.99;;
54143;SDS011;40050;47.324;18.792;2023-03-24T06:49:23;28.03;;;18.90;;
54143;SDS011;40050;47.324;18.792;2023-03-24T06:51:25;27.58;;;18.51;;
54143;SDS011;40050;47.324;18.792;2023-03-24T06:53:26;26.07;;;18.61;;
54143;SDS011;40050;47.324;18.792;2023-03-24T06:55:27;27.51;;;18.42;;
54143;SDS011;40050;47.324;18.792;2023-03-24T06:57:28;30.15;;;18.53;;
54143;SDS011;40050;47.324;18.792;2023-03-24T06:59:29;27.45;;;18.33;;
54143;SDS011;40050;47.324;18.792;2023-03-24T07:01:30;24.06;;;17.03;;
54143;SDS011;40050;47.324;18.792;2023-03-24T07:03:31;29.04;;;16.94;;
54143;SDS011;40050;47.324;18.792;2023-03-24T07:05:39;22.88;;;16.15;;
54143;SDS011;40050;47.324;18.792;2023-03-24T07:07:34;30.04;;;16.84;;
54143;SDS011;40050;47.324;18.792;2023-03-24T07:09:35;30.54;;;16.94;;
54143;SDS011;40050;47.324;18.792;2023-03-24T07:11:37;25.03;;;16.35;;
54143;SDS011;40050;47.324;18.792;2023-03-24T07:13:38;25.64;;;16.55;;
54143;SDS011;40050;47.324;18.792;2023-03-24T07:15:39;24.22;;;16.36;;
54143;SDS011;40050;47.324;18.792;2023-03-24T07:17:40;24.91;;;16.96;;
54143;SDS011;40050;47.324;18.792;2023-03-24T07:19:41;23.85;;;16.76;;
54143;SDS011;40050;47.324;18.792;2023-03-24T07:21:42;27.29;;;16.36;;
54143;SDS011;40050;47.324;18.792;2023-03-24T07:23:43;26.82;;;16.86;;
54143;SDS011;40050;47.324;18.792;2023-03-24T07:25:44;21.59;;;15.27;;
54143;SDS011;40050;47.324;18.792;2023-03-24T07:28:00;22.57;;;15.87;;
54143;SDS011;40050;47.324;18.792;2023-03-24T07:30:01;22.78;;;16.57;;
54143;SDS011;40050;47.324;18.792;2023-03-24T07:32:02;23.68;;;15.97;;
54143;SDS011;40050;47.324;18.792;2023-03-24T07:34:06;21.95;;;14.18;;
54143;SDS011;40050;47.324;18.792;2023-03-24T07:36:04;20.88;;;14.18;;
54143;SDS011;40050;47.324;18.792;2023-03-24T07:38:05;19.51;;;12.98;;
54143;SDS011;40050;47.324;18.792;2023-03-24T07:40:06;19.83;;;13.28;;
54143;SDS011;40050;47.324;18.792;2023-03-24T07:42:07;20.16;;;11.89;;
54143;SDS011;40050;47.324;18.792;2023-03-24T07:44:08;15.45;;;11.39;;
54143;SDS011;40050;47.324;18.792;2023-03-24T07:46:08;16.04;;;11.29;;
54143;SDS011;40050;47.324;18.792;2023-03-24T07:48:09;15.95;;;11.29;;
54143;SDS011;40050;47.324;18.792;2023-03-24T07:50:11;15.54;;;11.59;;
54143;SDS011;40050;47.324;18.792;2023-03-24T07:52:11;16.34;;;11.19;;
54143;SDS011;40050;47.324;18.792;2023-03-24T07:54:12;14.37;;;10.29;;
54143;SDS011;40050;47.324;18.792;2023-03-24T07:56:13;17.36;;;10.89;;
54143;SDS011;40050;47.324;18.792;2023-03-24T07:58:17;14.78;;;10.69;;
54143;SDS011;40050;47.324;18.792;2023-03-24T08:00:18;13.71;;;9.40;;
54143;SDS011;40050;47.324;18.792;2023-03-24T08:02:19;13.91;;;10.80;;
54143;SDS011;40050;47.324;18.792;2023-03-24T08:04:20;16.69;;;11.00;;
54143;SDS011;40050;47.324;18.792;2023-03-24T08:06:21;15.99;;;11.60;;
54143;SDS011;40050;47.324;18.792;2023-03-24T08:08:22;15.29;;;11.19;;
54143;SDS011;40050;47.324;18.792;2023-03-24T08:10:24;16.78;;;11.60;;
54143;SDS011;40050;47.324;18.792;2023-03-24T08:12:24;18.08;;;12.49;;
54143;SDS011;40050;47.324;18.792;2023-03-24T08:14:25;16.80;;;11.70;;
54143;SDS011;40050;47.324;18.792;2023-03-24T08:16:26;15.20;;;11.70;;
54143;SDS011;40050;47.324;18.792;2023-03-24T08:18:27;14.61;;;11.30;;
54143;SDS011;40050;47.324;18.792;2023-03-24T08:20:28;15.81;;;11.60;;
54143;SDS011;40050;47.324;18.792;2023-03-24T08:22:29;18.59;;;11.20;;
54143;SDS011;40050;47.324;18.792;2023-03-24T08:24:30;16.60;;;12.40;;
54143;SDS011;40050;47.324;18.792;2023-03-24T08:26:31;17.09;;;12.30;;
54143;SDS011;40050;47.324;18.792;2023-03-24T08:28:31;16.20;;;11.50;;
54143;SDS011;40050;47.324;18.792;2023-03-24T08:30:32;15.70;;;11.70;;
54143;SDS011;40050;47.324;18.792;2023-03-24T08:32:34;17.88;;;12.00;;
54143;SDS011;40050;47.324;18.792;2023-03-24T08:34:35;17.18;;;11.89;;
54143;SDS011;40050;47.324;18.792;2023-03-24T08:36:36;16.60;;;11.10;;
54143;SDS011;40050;47.324;18.792;2023-03-24T08:38:39;15.50;;;11.00;;
54143;SDS011;40050;47.324;18.792;2023-03-24T08:40:40;18.70;;;11.90;;
54143;SDS011;40050;47.324;18.792;2023-03-24T08:42:41;16.41;;;11.90;;
54143;SDS011;40050;47.324;18.792;2023-03-24T08:44:43;16.10;;;11.80;;
54143;SDS011;40050;47.324;18.792;2023-03-24T08:46:43;16.40;;;11.60;;
54143;SDS011;40050;47.324;18.792;2023-03-24T08:48:44;17.01;;;11.40;;
54143;SDS011;40050;47.324;18.792;2023-03-24T08:50:46;15.71;;;10.70;;
54143;SDS011;40050;47.324;18.792;2023-03-24T08:52:47;13.62;;;10.20;;
54143;SDS011;40050;47.324;18.792;2023-03-24T08:54:48;15.22;;;11.40;;
54143;SDS011;40050;47.324;18.792;2023-03-24T08:56:49;14.52;;;11.40;;
54143;SDS011;40050;47.324;18.792;2023-03-24T08:58:50;16.01;;;11.70;;
54143;SDS011;40050;47.324;18.792;2023-03-24T09:00:51;14.82;;;11.20;;
54143;SDS011;40050;47.324;18.792;2023-03-24T09:02:53;15.42;;;11.00;;
54143;SDS011;40050;47.324;18.792;2023-03-24T09:04:53;14.72;;;10.30;;
54143;SDS011;40050;47.324;18.792;2023-03-24T09:06:54;17.11;;;11.40;;
54143;SDS011;40050;47.324;18.792;2023-03-24T09:08:55;18.61;;;11.60;;
54143;SDS011;40050;47.324;18.792;2023-03-24T09:10:56;17.01;;;12.00;;
54143;SDS011;40050;47.324;18.792;2023-03-24T09:12:57;17.51;;;11.90;;
54143;SDS011;40050;47.324;18.792;2023-03-24T09:14:58;18.01;;;12.10;;
54143;SDS011;40050;47.324;18.792;2023-03-24T09:16:59;16.92;;;11.90;;
54143;SDS011;40050;47.324;18.792;2023-03-24T09:19:00;15.32;;;10.30;;
54143;SDS011;40050;47.324;18.792;2023-03-24T09:21:01;11.84;;;9.50;;
54143;SDS011;40050;47.324;18.792;2023-03-24T09:23:02;13.13;;;10.10;;
54143;SDS011;40050;47.324;18.792;2023-03-24T09:25:03;16.12;;;10.20;;
54143;SDS011;40050;47.324;18.792;2023-03-24T09:27:04;14.13;;;10.20;;
54143;SDS011;40050;47.324;18.792;2023-03-24T09:29:05;12.74;;;9.70;;
54143;SDS011;40050;47.324;18.792;2023-03-24T09:31:06;15.33;;;10.00;;
54143;SDS011;40050;47.324;18.792;2023-03-24T09:33:07;11.95;;;9.20;;
54143;SDS011;40050;47.324;18.792;2023-03-24T09:35:08;8.37;;;5.60;;
54143;SDS011;40050;47.324;18.792;2023-03-24T09:37:08;10.37;;;5.90;;
54143;SDS011;40050;47.324;18.792;2023-03-24T09:39:09;9.27;;;5.30;;
54143;SDS011;40050;47.324;18.792;2023-03-24T09:41:14;7.98;;;5.50;;
54143;SDS011;40050;47.324;18.792;2023-03-24T09:45:17;9.28;;;5.30;;
54143;SDS011;40050;47.324;18.792;2023-03-24T09:47:35;9.08;;;5.10;;
54143;SDS011;40050;47.324;18.792;2023-03-24T09:49:22;9.88;;;5.10;;
54143;SDS011;40050;47.324;18.792;2023-03-24T09:51:44;8.38;;;4.80;;
54143;SDS011;40050;47.324;18.792;2023-03-24T09:55:57;8.48;;;5.20;;
54143;SDS011;40050;47.324;18.792;2023-03-24T09:58:09;8.98;;;5.30;;
54143;SDS011;40050;47.324;18.792;2023-03-24T10:00:20;9.57;;;5.10;;
54143;SDS011;40050;47.324;18.792;2023-03-24T10:02:14;9.08;;;4.70;;
54143;SDS011;40050;47.324;18.792;2023-03-24T10:04:16;8.78;;;4.80;;
54143;SDS011;40050;47.324;18.792;2023-03-24T10:06:29;9.28;;;4.90;;
54143;SDS011;40050;47.324;18.792;2023-03-24T10:11:28;8.58;;;4.90;;
54143;SDS011;40050;47.324;18.792;2023-03-24T10:13:25;10.98;;;5.30;;
54143;SDS011;40050;47.324;18.792;2023-03-24T10:15:30;11.48;;;5.10;;
54143;SDS011;40050;47.324;18.792;2023-03-24T10:24:23;12.18;;;5.20;;
54143;SDS011;40050;47.324;18.792;2023-03-24T10:29:08;9.79;;;5.40;;
54143;SDS011;40050;47.324;18.792;2023-03-24T10:30:42;9.89;;;5.50;;
54143;SDS011;40050;47.324;18.792;2023-03-24T10:32:46;9.89;;;5.10;;
54143;SDS011;40050;47.324;18.792;2023-03-24T10:34:55;10.49;;;5.40;;
54143;SDS011;40050;47.324;18.792;2023-03-24T10:36:51;12.28;;;5.70;;
54143;SDS011;40050;47.324;18.792;2023-03-24T10:38:53;10.98;;;5.10;;
54143;SDS011;40050;47.324;18.792;2023-03-24T10:40:56;13.38;;;5.20;;
54143;SDS011;40050;47.324;18.792;2023-03-24T10:43:01;10.98;;;4.90;;
54143;SDS011;40050;47.324;18.792;2023-03-24T10:45:02;10.39;;;4.90;;
54143;SDS011;40050;47.324;18.792;2023-03-24T10:47:02;9.69;;;4.90;;
54143;SDS011;40050;47.324;18.792;2023-03-24T10:49:15;9.89;;;4.80;;
54143;SDS011;40050;47.324;18.792;2023-03-24T10:51:25;10.29;;;5.20;;
54143;SDS011;40050;47.324;18.792;2023-03-24T10:53:17;9.69;;;4.40;;
54143;SDS011;40050;47.324;18.792;2023-03-24T10:55:29;7.59;;;4.10;;
54143;SDS011;40050;47.324;18.792;2023-03-24T10:57:34;7.29;;;4.00;;
54143;SDS011;40050;47.324;18.792;2023-03-24T10:59:52;7.89;;;3.80;;
54143;SDS011;40050;47.324;18.792;2023-03-24T11:04:03;7.89;;;3.80;;
54143;SDS011;40050;47.324;18.792;2023-03-24T11:06:04;6.19;;;3.60;;
54143;SDS011;40050;47.324;18.792;2023-03-24T11:10:17;6.39;;;2.80;;
54143;SDS011;40050;47.324;18.792;2023-03-24T11:12:29;7.59;;;2.80;;
54143;SDS011;40050;47.324;18.792;2023-03-24T11:14:25;4.80;;;2.40;;
54143;SDS011;40050;47.324;18.792;2023-03-24T11:16:36;6.80;;;2.60;;
54143;SDS011;40050;47.324;18.792;2023-03-24T11:18:55;6.90;;;2.70;;
54143;SDS011;40050;47.324;18.792;2023-03-24T11:20:52;5.20;;;2.40;;
54143;SDS011;40050;47.324;18.792;2023-03-24T11:22:59;6.20;;;2.50;;
54143;SDS011;40050;47.324;18.792;2023-03-24T11:24:54;5.60;;;2.20;;
54143;SDS011;40050;47.324;18.792;2023-03-24T11:27:04;7.09;;;2.40;;
54143;SDS011;40050;47.324;18.792;2023-03-24T11:29:12;5.20;;;2.10;;
54143;SDS011;40050;47.324;18.792;2023-03-24T11:31:23;6.20;;;2.10;;
54143;SDS011;40050;47.324;18.792;2023-03-24T11:33:21;3.10;;;2.20;;
54143;SDS011;40050;47.324;18.792;2023-03-24T11:35:20;5.70;;;2.50;;
54143;SDS011;40050;47.324;18.792;2023-03-24T11:37:24;3.80;;;1.90;;
54143;SDS011;40050;47.324;18.792;2023-03-24T11:39:31;6.20;;;2.10;;
54143;SDS011;40050;47.324;18.792;2023-03-24T11:41:33;5.40;;;2.20;;
54143;SDS011;40050;47.324;18.792;2023-03-24T11:43:33;3.30;;;2.00;;
54143;SDS011;40050;47.324;18.792;2023-03-24T11:45:51;3.50;;;1.90;;
54143;SDS011;40050;47.324;18.792;2023-03-24T11:48:01;4.60;;;2.10;;
54143;SDS011;40050;47.324;18.792;2023-03-24T11:52:11;3.90;;;2.00;;
54143;SDS011;40050;47.324;18.792;2023-03-24T11:54:13;4.10;;;1.90;;
54143;SDS011;40050;47.324;18.792;2023-03-24T11:56:39;3.50;;;2.00;;
54143;SDS011;40050;47.324;18.792;2023-03-24T11:58:49;4.80;;;2.00;;
54143;SDS011;40050;47.324;18.792;2023-03-24T12:00:53;4.70;;;2.10;;
54143;SDS011;40050;47.324;18.792;2023-03-24T12:09:46;3.00;;;1.80;;
54143;SDS011;40050;47.324;18.792;2023-03-24T12:12:11;5.20;;;2.00;;
54143;SDS011;40050;47.324;18.792;2023-03-24T12:14:10;3.70;;;1.90;;
54143;SDS011;40050;47.324;18.792;2023-03-24T12:16:46;4.50;;;2.10;;
54143;SDS011;40050;47.324;18.792;2023-03-24T12:23:25;2.90;;;2.00;;
54143;SDS011;40050;47.324;18.792;2023-03-24T12:25:33;2.70;;;1.60;;
54143;SDS011;40050;47.324;18.792;2023-03-24T12:29:51;4.30;;;2.30;;
54143;SDS011;40050;47.324;18.792;2023-03-24T12:34:23;6.30;;;2.30;;
54143;SDS011;40050;47.324;18.792;2023-03-24T12:40:53;4.60;;;1.90;;
54143;SDS011;40050;47.324;18.792;2023-03-24T12:43:13;7.50;;;2.10;;
54143;SDS011;40050;47.324;18.792;2023-03-24T12:45:29;3.20;;;1.90;;
54143;SDS011;40050;47.324;18.792;2023-03-24T12:52:15;3.70;;;2.10;;
54143;SDS011;40050;47.324;18.792;2023-03-24T12:54:38;4.40;;;2.10;;
54143;SDS011;40050;47.324;18.792;2023-03-24T12:56:47;3.20;;;1.80;;
54143;SDS011;40050;47.324;18.792;2023-03-24T12:58:57;7.20;;;2.00;;
54143;SDS011;40050;47.324;18.792;2023-03-24T13:01:04;5.50;;;2.10;;
54143;SDS011;40050;47.324;18.792;2023-03-24T13:03:32;3.60;;;1.90;;
54143;SDS011;40050;47.324;18.792;2023-03-24T13:05:33;5.10;;;2.40;;
54143;SDS011;40050;47.324;18.792;2023-03-24T13:07:35;3.30;;;2.20;;
54143;SDS011;40050;47.324;18.792;2023-03-24T13:12:09;3.50;;;2.00;;
54143;SDS011;40050;47.324;18.792;2023-03-24T13:14:03;5.70;;;2.00;;
54143;SDS011;40050;47.324;18.792;2023-03-24T13:16:08;2.60;;;1.90;;
54143;SDS011;40050;47.324;18.792;2023-03-24T13:18:22;3.00;;;1.80;;
54143;SDS011;40050;47.324;18.792;2023-03-24T13:20:13;5.10;;;2.40;;
54143;SDS011;40050;47.324;18.792;2023-03-24T13:22:15;3.60;;;1.90;;
54143;SDS011;40050;47.324;18.792;2023-03-24T13:24:18;4.80;;;2.00;;